メインページ
METAR-TAF:

METAR-TAF

空港 :

桂林, 中華人民共和国

桂林両江国際空港

緯度: 25-20N, 経度: 110-18E, 海抜: 166m

現時点の気象観測

当レポートは26分前の17:00(UTC)に作成
変向風 2kt
気温 11°C
湿度 87%
気圧 1025 hPa
視程: 6000m
高度3300ftの雲は散在している
高度6600ftの曇り
小雨

METAR: ZGKL 251700Z VRB01MPS 6000 -RA SCT033 OVC066 11/09 Q1025 NOSIG

時間: 01:26 (17:26 UTC)

予報

当レポートは8時間16分前の09:10(UTC)に作成
予報は25日の 12時(UTC)から 26日の 12時(UTC)まで有効
北東の風 8kt
視程10km以上
高度3300ftの雲は散在している
高度6000ftの千切れ雲あり

TAF: ZGKL 250910Z 2512/2612 05004MPS 9999 SCT033 BKN060 TX18/2608Z TN10/2522Z

4,000以上の空港の気象観測と天気予報(METAR報とTAF報)

利用可能な観測所は地図上に黄色い丸と赤い丸で示す。

丸の上にカーソルを重ねると観測所名を参照できる。

次にクリックすると気象観測と天気予報を参照できる。

マップの切り替え:黒色「×」印の緑ボタンをクリックして拡大、「-」印の緑ボタンをクリックして縮小、緑色の三角印をクリックして隣りの地図に切り替え


METAR-TAF: